Time;durP1;ratioP1;P1;durP2;ratioP2;P2;SDS_P1;SDS_P2;PMS_P1;PMS_P2;Temp;Humidity;BMP_temperature;BMP_pressure;BME280_temperature;BME280_humidity;BME280_pressure;Samples;Min_cycle;Max_cycle;Signal;HPM_P1;HPM_P2
2023/03/09 00:01:50;;;;;;;12.48;4.85;;;12.30;84.20;;;;;;4935580;29;20478;-74
2023/03/09 00:04:16;;;;;;;13.43;5.20;;;12.30;83.70;;;;;;4935110;29;20545;-75
2023/03/09 00:06:43;;;;;;;10.88;4.78;;;12.30;85.20;;;;;;4934881;29;20051;-75
2023/03/09 00:09:10;;;;;;;11.68;4.93;;;12.30;84.20;;;;;;4935670;29;20027;-75
2023/03/09 00:11:40;;;;;;;10.85;4.95;;;12.30;84.30;;;;;;4935595;29;20032;-75
2023/03/09 00:14:06;;;;;;;12.32;5.53;;;12.30;84.50;;;;;;4935556;29;20389;-74
2023/03/09 00:16:32;;;;;;;16.40;8.27;;;12.30;84.90;;;;;;4935471;29;20048;-75
2023/03/09 00:18:58;;;;;;;17.95;7.55;;;12.30;85.10;;;;;;4935474;29;20063;-75
2023/03/09 00:21:36;;;;;;;15.88;7.90;;;12.20;85.40;;;;;;4938213;29;20020;-75
2023/03/09 00:24:05;;;;;;;15.80;7.85;;;12.20;85.30;;;;;;4939326;29;20039;-75
2023/03/09 00:26:34;;;;;;;14.82;6.95;;;12.20;84.40;;;;;;4939112;29;20027;-75
2023/03/09 00:28:59;;;;;;;14.63;7.50;;;12.20;86.40;;;;;;4939129;29;20060;-75
2023/03/09 00:31:25;;;;;;;9.88;5.65;;;12.10;85.10;;;;;;4939164;29;20020;-75
2023/03/09 00:33:51;;;;;;;17.70;7.85;;;12.10;84.70;;;;;;4937771;29;20524;-74
2023/03/09 00:36:17;;;;;;;16.40;6.72;;;12.10;85.70;;;;;;4938998;29;20476;-75
2023/03/09 00:38:48;;;;;;;16.38;6.15;;;12.10;84.40;;;;;;4938931;29;20095;-74
2023/03/09 00:41:16;;;;;;;17.88;6.40;;;12.10;87.60;;;;;;4938872;29;20088;-75
2023/03/09 00:43:41;;;;;;;14.02;5.93;;;12.00;85.00;;;;;;4938712;29;20164;-75
2023/03/09 00:46:09;;;;;;;13.93;6.70;;;12.00;85.60;;;;;;4938940;29;20039;-75
2023/03/09 00:48:36;;;;;;;16.63;7.03;;;12.00;86.20;;;;;;4938485;29;20035;-72
2023/03/09 00:51:02;;;;;;;13.65;6.38;;;12.00;86.40;;;;;;4938525;29;20163;-72
2023/03/09 00:53:28;;;;;;;11.30;5.82;;;12.00;85.60;;;;;;4938523;29;20102;-75
2023/03/09 00:55:54;;;;;;;18.00;6.60;;;12.00;85.60;;;;;;4937765;29;20486;-74
2023/03/09 00:58:20;;;;;;;11.38;5.97;;;12.00;85.60;;;;;;4921384;29;20032;-74
2023/03/09 01:00:45;;;;;;;12.43;6.22;;;12.00;86.20;;;;;;4938466;29;20027;-75
2023/03/09 01:03:11;;;;;;;16.85;6.95;;;11.90;85.90;;;;;;4920646;29;20103;-74
2023/03/09 01:05:38;;;;;;;13.68;6.35;;;11.90;86.50;;;;;;4938281;29;20024;-75
2023/03/09 01:08:04;;;;;;;13.95;6.85;;;11.90;86.40;;;;;;4938151;29;20047;-73
2023/03/09 01:10:30;;;;;;;12.80;6.05;;;11.80;87.50;;;;;;4938586;29;20032;-75
2023/03/09 01:12:56;;;;;;;12.88;6.63;;;11.80;86.20;;;;;;4921052;29;20027;-75
2023/03/09 01:15:22;;;;;;;17.38;8.25;;;11.80;87.50;;;;;;4936615;29;20032;-74
2023/03/09 01:17:48;;;;;;;16.05;7.43;;;11.70;87.70;;;;;;4920236;29;20055;-74
2023/03/09 01:20:14;;;;;;;18.90;8.30;;;11.70;87.50;;;;;;4937020;29;20059;-73
2023/03/09 01:22:40;;;;;;;17.23;8.05;;;11.70;87.90;;;;;;4936725;29;20059;-74
2023/03/09 01:25:06;;;;;;;16.55;7.25;;;11.70;87.30;;;;;;4937805;29;20466;-73
2023/03/09 01:27:32;;;;;;;19.20;8.60;;;11.70;88.00;;;;;;4936719;29;20102;-74
2023/03/09 01:29:59;;;;;;;18.88;8.05;;;11.60;88.00;;;;;;4920299;29;20035;-73
2023/03/09 01:32:25;;;;;;;17.05;7.78;;;11.60;88.60;;;;;;4937282;29;20031;-73
2023/03/09 01:34:52;;;;;;;17.92;7.75;;;11.70;87.80;;;;;;4936495;29;20032;-73
2023/03/09 01:37:19;;;;;;;15.95;7.28;;;11.70;89.30;;;;;;4937158;29;20031;-73
2023/03/09 01:39:45;;;;;;;16.27;6.88;;;11.70;87.90;;;;;;4936622;29;20055;-74
2023/03/09 01:42:12;;;;;;;13.65;5.25;;;11.70;88.60;;;;;;4936135;29;20055;-74
2023/03/09 01:44:40;;;;;;;14.32;4.80;;;11.70;89.30;;;;;;4936268;29;20098;-75
2023/03/09 01:47:06;;;;;;;13.48;4.93;;;11.70;87.90;;;;;;4935229;29;20035;-73
2023/03/09 01:49:43;;;;;;;10.45;4.20;;;11.80;87.60;;;;;;4936668;29;20036;-74
2023/03/09 01:52:25;;;;;;;6.95;3.42;;;11.80;89.50;;;;;;4936153;29;20078;-74
2023/03/09 01:54:58;;;;;;;8.15;3.75;;;11.90;89.50;;;;;;4943355;29;20498;-74
2023/03/09 01:57:27;;;;;;;7.30;3.30;;;11.90;86.90;;;;;;4935549;28;20024;-74
2023/03/09 01:59:56;;;;;;;7.00;3.75;;;12.00;87.80;;;;;;4937216;29;20070;-74
2023/03/09 02:02:27;;;;;;;7.80;3.80;;;12.00;87.60;;;;;;4919857;29;20028;-74
2023/03/09 02:04:57;;;;;;;11.27;4.15;;;12.10;86.80;;;;;;4936941;29;20040;-75
2023/03/09 02:07:25;;;;;;;7.07;3.22;;;12.10;88.00;;;;;;4919910;29;20047;-74
2023/03/09 02:10:23;;;;;;;8.18;3.90;;;12.10;88.00;;;;;;4936770;29;20032;-73
2023/03/09 02:12:53;;;;;;;13.95;4.22;;;12.10;88.10;;;;;;4931389;29;20036;-73
2023/03/09 02:15:21;;;;;;;8.88;3.85;;;12.00;87.70;;;;;;4911424;29;20118;-74
2023/03/09 02:17:49;;;;;;;10.57;4.32;;;12.00;87.50;;;;;;4919938;29;20039;-73
2023/03/09 02:20:17;;;;;;;6.63;3.63;;;12.10;88.00;;;;;;4919759;29;20024;-73
2023/03/09 02:22:45;;;;;;;12.35;4.90;;;12.00;87.90;;;;;;4919847;29;20105;-74
2023/03/09 02:25:37;;;;;;;7.97;3.38;;;12.00;88.40;;;;;;4919704;29;20028;-73
2023/03/09 02:28:05;;;;;;;7.22;3.72;;;12.00;88.30;;;;;;4880478;29;20028;-73
2023/03/09 02:30:35;;;;;;;9.63;4.93;;;12.00;88.90;;;;;;4880710;29;20486;-73
2023/03/09 02:33:25;;;;;;;8.02;3.92;;;12.00;88.40;;;;;;4894225;29;20040;-73
2023/03/09 02:36:00;;;;;;;10.85;4.38;;;11.90;88.50;;;;;;4896224;29;20029;-73
2023/03/09 02:38:29;;;;;;;9.65;3.92;;;11.90;88.50;;;;;;4881242;29;20112;-74
2023/03/09 02:40:58;;;;;;;8.38;4.32;;;11.90;88.40;;;;;;4896275;29;20021;-75
2023/03/09 02:43:32;;;;;;;10.93;4.30;;;12.00;88.60;;;;;;4880279;29;20036;-75
2023/03/09 02:45:58;;;;;;;9.70;4.22;;;12.00;88.70;;;;;;4893425;29;20040;-74
2023/03/09 02:48:25;;;;;;;8.38;3.83;;;12.00;89.60;;;;;;4893406;29;20029;-74
2023/03/09 02:50:50;;;;;;;9.40;3.72;;;12.00;89.20;;;;;;4900360;29;20040;-75
2023/03/09 02:53:16;;;;;;;11.80;4.82;;;12.10;89.70;;;;;;4896087;29;20048;-75
2023/03/09 02:55:43;;;;;;;9.60;4.50;;;12.00;89.30;;;;;;4896075;29;20036;-74
2023/03/09 02:58:10;;;;;;;11.57;4.72;;;12.00;89.60;;;;;;4895642;29;20037;-74
2023/03/09 03:00:36;;;;;;;10.23;4.35;;;12.00;89.20;;;;;;4895864;29;20043;-75
2023/03/09 03:03:02;;;;;;;9.23;3.70;;;12.00;89.90;;;;;;4897657;29;20108;-75
2023/03/09 03:05:30;;;;;;;11.45;3.60;;;12.00;89.70;;;;;;4903398;29;20047;-74
2023/03/09 03:07:56;;;;;;;11.40;3.47;;;12.00;90.00;;;;;;4929771;29;20048;-74
2023/03/09 03:10:22;;;;;;;8.30;3.90;;;12.00;90.20;;;;;;4934944;29;20036;-74
2023/03/09 03:12:49;;;;;;;7.93;3.97;;;12.00;90.20;;;;;;4919082;29;20174;-74
2023/03/09 03:15:15;;;;;;;10.38;3.58;;;12.00;90.00;;;;;;4935800;29;20493;-75
2023/03/09 03:17:41;;;;;;;6.78;3.83;;;12.00;90.50;;;;;;4935729;29;20043;-74
2023/03/09 03:20:13;;;;;;;8.02;3.95;;;12.00;90.40;;;;;;4918898;29;20032;-74
2023/03/09 03:22:42;;;;;;;9.25;3.88;;;12.00;90.60;;;;;;4918913;29;20169;-75
2023/03/09 03:25:08;;;;;;;11.32;4.45;;;12.00;90.60;;;;;;4934263;29;20083;-75
2023/03/09 03:27:39;;;;;;;9.55;4.65;;;12.00;90.90;;;;;;4918446;29;20028;-75
2023/03/09 03:30:06;;;;;;;6.82;3.58;;;12.00;90.50;;;;;;4934228;29;20032;-75
2023/03/09 03:32:34;;;;;;;10.13;4.13;;;12.00;90.50;;;;;;4918186;29;20031;-75
2023/03/09 03:35:00;;;;;;;7.70;4.18;;;12.00;90.70;;;;;;4918438;29;20035;-73
2023/03/09 03:37:27;;;;;;;10.52;4.25;;;12.00;90.70;;;;;;4918388;29;20075;-74
2023/03/09 03:39:52;;;;;;;10.23;4.50;;;12.00;90.80;;;;;;4935506;29;20031;-74
2023/03/09 03:42:18;;;;;;;10.60;3.70;;;12.00;90.80;;;;;;4918200;29;20027;-74
2023/03/09 03:44:44;;;;;;;13.52;4.50;;;12.10;90.60;;;;;;4934644;29;20031;-75
2023/03/09 03:47:13;;;;;;;8.15;3.90;;;12.10;92.10;;;;;;4918073;29;20435;-74
2023/03/09 03:49:40;;;;;;;7.65;3.70;;;12.10;90.50;;;;;;4935210;29;20032;-75
2023/03/09 03:52:10;;;;;;;8.07;3.95;;;12.10;90.80;;;;;;4918638;29;20047;-75
2023/03/09 03:54:37;;;;;;;7.13;3.45;;;12.20;91.30;;;;;;4935545;29;20035;-75
2023/03/09 03:57:04;;;;;;;12.13;3.78;;;12.20;90.80;;;;;;4917788;29;20374;-75
2023/03/09 03:59:30;;;;;;;6.78;2.92;;;12.10;91.10;;;;;;4918465;29;20035;-75
2023/03/09 04:01:56;;;;;;;7.95;3.65;;;12.20;90.90;;;;;;4935329;29;20385;-74
2023/03/09 04:04:23;;;;;;;7.93;4.50;;;12.20;90.80;;;;;;4933846;29;20413;-74
2023/03/09 04:06:55;;;;;;;8.82;4.28;;;12.20;92.60;;;;;;4922426;29;20044;-74
2023/03/09 04:09:23;;;;;;;11.25;3.80;;;12.30;91.70;;;;;;4918242;29;20068;-74
2023/03/09 04:11:50;;;;;;;7.82;3.92;;;12.20;91.20;;;;;;4918093;29;20071;-74
2023/03/09 04:14:16;;;;;;;10.98;4.57;;;12.20;91.30;;;;;;4915115;29;20042;-74
2023/03/09 04:16:42;;;;;;;8.27;4.35;;;12.20;91.70;;;;;;4917771;29;20032;-75
2023/03/09 04:19:09;;;;;;;7.82;3.80;;;12.20;91.40;;;;;;4917902;29;20032;-75
2023/03/09 04:21:38;;;;;;;7.93;4.50;;;12.20;91.50;;;;;;4922581;29;20028;-74
2023/03/09 04:24:04;;;;;;;12.27;5.03;;;12.20;91.70;;;;;;4932843;29;20054;-74
2023/03/09 04:26:30;;;;;;;11.35;4.97;;;12.20;91.30;;;;;;4917642;29;20024;-75
2023/03/09 04:29:00;;;;;;;11.02;5.35;;;12.20;91.90;;;;;;4918376;29;20043;-74
2023/03/09 04:31:27;;;;;;;11.88;4.82;;;12.20;91.80;;;;;;4933914;29;20122;-75
2023/03/09 04:33:54;;;;;;;7.30;4.85;;;12.20;91.80;;;;;;4935208;29;20130;-75
2023/03/09 04:36:21;;;;;;;9.90;4.30;;;12.20;92.40;;;;;;4934083;29;20050;-74
2023/03/09 04:38:48;;;;;;;10.00;4.25;;;12.20;91.70;;;;;;4917409;29;20107;-74
2023/03/09 04:41:15;;;;;;;11.73;4.80;;;12.20;92.10;;;;;;4917914;29;20042;-74
2023/03/09 04:43:46;;;;;;;10.73;4.38;;;12.20;92.30;;;;;;4917645;29;20126;-74
2023/03/09 04:46:12;;;;;;;8.00;4.30;;;12.20;92.30;;;;;;4918197;29;20552;-74
2023/03/09 04:48:38;;;;;;;12.15;4.80;;;12.20;92.10;;;;;;4935450;29;20036;-74
2023/03/09 04:51:05;;;;;;;9.68;5.55;;;12.20;92.20;;;;;;4933352;29;20460;-73
2023/03/09 04:53:32;;;;;;;11.38;4.95;;;12.20;92.70;;;;;;4917284;29;20035;-73
2023/03/09 04:55:59;;;;;;;9.15;4.47;;;12.20;92.80;;;;;;4917482;29;20031;-74
2023/03/09 04:58:25;;;;;;;11.00;5.05;;;12.20;92.50;;;;;;4918052;29;20031;-74
2023/03/09 05:00:52;;;;;;;10.45;4.97;;;12.30;92.60;;;;;;4934763;29;20389;-74
2023/03/09 05:03:20;;;;;;;9.65;4.45;;;12.20;92.90;;;;;;4917364;29;20383;-74
2023/03/09 05:05:49;;;;;;;12.05;4.60;;;12.30;92.80;;;;;;4934193;29;20038;-74
2023/03/09 05:08:16;;;;;;;10.48;4.88;;;12.30;92.40;;;;;;4938201;29;20115;-75
2023/03/09 05:10:42;;;;;;;7.30;3.58;;;12.30;92.80;;;;;;4921002;29;20031;-75
2023/03/09 05:13:09;;;;;;;13.93;5.72;;;12.40;92.60;;;;;;4920882;29;20020;-75
2023/03/09 05:15:39;;;;;;;14.57;6.63;;;12.30;92.90;;;;;;4922350;29;20055;-75
2023/03/09 05:18:06;;;;;;;12.55;5.75;;;12.30;93.00;;;;;;4938816;29;20217;-74
2023/03/09 05:20:33;;;;;;;13.88;5.93;;;12.40;93.00;;;;;;4937135;29;20043;-75
2023/03/09 05:23:03;;;;;;;14.02;7.28;;;12.40;93.20;;;;;;4919891;29;20506;-75
2023/03/09 05:25:30;;;;;;;14.73;6.45;;;12.40;93.40;;;;;;4920960;29;20040;-75
2023/03/09 05:27:58;;;;;;;13.13;5.50;;;12.40;93.40;;;;;;4920776;29;20147;-75
2023/03/09 05:30:28;;;;;;;12.10;5.57;;;12.50;93.90;;;;;;4920996;29;20397;-75
2023/03/09 05:32:54;;;;;;;12.80;5.50;;;12.40;93.80;;;;;;4937675;29;20132;-77
2023/03/09 05:35:22;;;;;;;15.73;6.78;;;12.50;93.40;;;;;;4920590;29;20036;-76
2023/03/09 05:37:48;;;;;;;15.75;8.32;;;12.50;93.50;;;;;;4920470;29;20052;-77
2023/03/09 05:40:22;;;;;;;16.20;8.05;;;12.50;93.60;;;;;;4920398;29;20511;-74
2023/03/09 05:42:50;;;;;;;15.02;7.53;;;12.60;93.60;;;;;;4920703;29;20035;-74
2023/03/09 05:45:17;;;;;;;11.25;6.13;;;12.60;93.90;;;;;;4919881;29;20047;-76
2023/03/09 05:47:42;;;;;;;12.43;6.97;;;12.50;94.30;;;;;;4936170;29;20119;-74
2023/03/09 05:50:09;;;;;;;13.43;6.40;;;12.50;94.40;;;;;;4936224;29;20042;-76
2023/03/09 05:52:37;;;;;;;14.23;7.68;;;12.50;94.40;;;;;;4937642;29;20027;-76
2023/03/09 05:55:04;;;;;;;15.02;6.28;;;12.50;94.50;;;;;;4919914;29;20062;-76
2023/03/09 05:57:31;;;;;;;16.30;6.65;;;12.50;94.70;;;;;;4936491;29;20024;-76
2023/03/09 05:59:58;;;;;;;14.77;7.85;;;12.50;95.40;;;;;;4920244;29;20038;-77
2023/03/09 06:02:24;;;;;;;14.95;6.75;;;12.50;95.70;;;;;;4935407;29;20023;-76
2023/03/09 06:04:51;;;;;;;15.15;6.90;;;12.60;96.00;;;;;;4937423;29;20036;-76
2023/03/09 06:07:18;;;;;;;15.65;7.20;;;12.60;95.50;;;;;;4935988;29;20079;-74
2023/03/09 06:09:47;;;;;;;15.63;7.88;;;12.70;95.80;;;;;;4920485;29;20046;-77
2023/03/09 06:12:18;;;;;;;17.65;8.32;;;12.80;95.40;;;;;;4936360;29;20119;-76
2023/03/09 06:14:52;;;;;;;16.45;7.20;;;12.80;95.70;;;;;;4937100;29;20482;-76
2023/03/09 06:17:20;;;;;;;16.33;7.30;;;12.90;95.60;;;;;;4919954;29;20540;-77
2023/03/09 06:19:46;;;;;;;14.18;6.93;;;13.00;95.80;;;;;;4920001;29;20031;-76
2023/03/09 06:22:13;;;;;;;17.02;6.65;;;13.00;95.30;;;;;;4920121;29;20031;-75
2023/03/09 06:24:42;;;;;;;22.85;10.18;;;13.10;95.30;;;;;;4935667;29;20091;-76
2023/03/09 06:27:09;;;;;;;17.45;9.57;;;13.10;95.60;;;;;;4919870;29;20028;-76
2023/03/09 06:29:37;;;;;;;19.33;9.90;;;13.10;95.80;;;;;;4935655;29;20478;-77
2023/03/09 06:32:03;;;;;;;19.17;9.93;;;13.20;95.30;;;;;;4935608;29;20118;-74
2023/03/09 06:34:31;;;;;;;19.02;9.93;;;13.20;95.40;;;;;;4919882;29;20031;-76
2023/03/09 06:37:02;;;;;;;21.55;10.00;;;13.30;95.10;;;;;;4935631;29;20111;-77
2023/03/09 06:39:28;;;;;;;21.63;11.60;;;13.30;95.50;;;;;;4918886;29;20035;-77
2023/03/09 06:41:55;;;;;;;27.90;13.60;;;13.30;95.50;;;;;;4919188;29;20533;-77
2023/03/09 06:44:44;;;;;;;29.45;14.93;;;13.40;95.20;;;;;;4929765;29;20043;-76
2023/03/09 06:47:11;;;;;;;21.08;11.63;;;13.40;95.40;;;;;;4919163;29;20019;-75
2023/03/09 06:49:38;;;;;;;16.92;10.20;;;13.50;95.20;;;;;;4935539;29;20087;-75
2023/03/09 06:52:09;;;;;;;17.30;9.55;;;13.60;95.70;;;;;;4935255;29;20038;-76
2023/03/09 06:54:35;;;;;;;17.02;8.00;;;13.70;95.40;;;;;;4919353;29;20043;-76
2023/03/09 06:57:11;;;;;;;16.67;9.35;;;13.80;94.90;;;;;;4918750;29;20070;-76
2023/03/09 06:59:38;;;;;;;14.95;8.02;;;13.90;95.20;;;;;;4934874;29;20087;-74
2023/03/09 07:02:05;;;;;;;13.93;6.63;;;14.00;94.40;;;;;;4919236;29;20040;-76
2023/03/09 07:04:32;;;;;;;12.32;5.95;;;14.00;94.40;;;;;;4931360;29;20071;-75
2023/03/09 07:06:58;;;;;;;18.05;8.50;;;14.00;93.80;;;;;;4918215;29;20040;-76
2023/03/09 07:09:23;;;;;;;15.52;6.75;;;14.10;93.80;;;;;;4936218;29;20039;-73
2023/03/09 07:11:49;;;;;;;17.98;7.47;;;14.40;93.60;;;;;;4935834;29;20118;-74
2023/03/09 07:14:15;;;;;;;13.50;6.20;;;14.70;93.90;;;;;;4934170;29;20450;-76
2023/03/09 07:16:41;;;;;;;25.65;6.95;;;15.00;94.00;;;;;;4936092;29;20027;-77
2023/03/09 07:19:06;;;;;;;14.57;6.22;;;15.20;92.50;;;;;;4935822;29;20456;-74
2023/03/09 07:21:32;;;;;;;12.50;6.63;;;15.50;92.10;;;;;;4935525;29;20036;-73
2023/03/09 07:23:58;;;;;;;15.82;7.40;;;15.70;92.10;;;;;;4935465;29;20476;-75
2023/03/09 07:26:25;;;;;;;17.05;8.00;;;15.90;91.70;;;;;;4935827;29;20076;-75
2023/03/09 07:28:51;;;;;;;14.35;7.20;;;16.20;91.80;;;;;;4935142;29;20517;-76
2023/03/09 07:31:17;;;;;;;17.60;7.55;;;16.40;90.90;;;;;;4936136;29;20123;-75
2023/03/09 07:33:42;;;;;;;18.05;8.15;;;16.60;90.70;;;;;;4935943;29;20481;-75
2023/03/09 07:36:09;;;;;;;15.73;7.45;;;16.70;91.60;;;;;;4935524;29;20038;-74
2023/03/09 07:38:35;;;;;;;16.40;7.95;;;16.90;90.50;;;;;;4929138;29;20470;-74
2023/03/09 07:41:02;;;;;;;19.17;7.97;;;17.00;91.00;;;;;;4935195;29;20042;-76
2023/03/09 07:43:28;;;;;;;12.57;7.07;;;17.20;90.40;;;;;;4935175;29;20032;-74
2023/03/09 07:46:06;;;;;;;12.50;6.50;;;17.30;90.50;;;;;;4908547;29;20474;-76
2023/03/09 07:48:32;;;;;;;12.38;6.50;;;17.40;90.20;;;;;;4935488;29;20039;-76
2023/03/09 07:50:59;;;;;;;15.98;7.38;;;17.50;89.30;;;;;;4935663;29;20092;-74
2023/03/09 07:53:25;;;;;;;13.63;6.05;;;17.70;89.80;;;;;;4935652;29;20508;-73
2023/03/09 07:55:57;;;;;;;12.60;5.90;;;17.80;89.50;;;;;;4935746;29;20020;-77
2023/03/09 07:58:23;;;;;;;16.60;6.55;;;18.00;88.10;;;;;;4935439;29;20074;-75
2023/03/09 08:00:49;;;;;;;12.02;5.80;;;18.20;89.20;;;;;;4935723;29;20056;-76
2023/03/09 08:03:15;;;;;;;10.40;5.65;;;18.30;86.80;;;;;;4935683;29;20032;-76
2023/03/09 08:05:41;;;;;;;17.70;6.32;;;18.40;86.70;;;;;;4934195;29;20091;-75
2023/03/09 08:08:08;;;;;;;10.02;4.90;;;18.60;86.00;;;;;;4934386;29;20447;-76
2023/03/09 08:10:33;;;;;;;9.35;5.10;;;18.70;85.70;;;;;;4934595;29;20032;-72
2023/03/09 08:13:00;;;;;;;10.48;4.25;;;18.50;84.60;;;;;;4920331;29;20051;-74
2023/03/09 08:15:26;;;;;;;7.32;3.63;;;18.60;85.40;;;;;;4920456;29;20055;-76
2023/03/09 08:17:52;;;;;;;6.78;3.60;;;18.70;85.10;;;;;;4935281;29;20028;-77
2023/03/09 08:20:18;;;;;;;9.13;4.63;;;18.80;83.60;;;;;;4934298;29;20028;-74
2023/03/09 08:22:46;;;;;;;7.80;3.47;;;18.90;83.30;;;;;;4935373;29;20038;-77
2023/03/09 08:25:13;;;;;;;14.48;5.03;;;19.00;83.30;;;;;;4918295;29;20123;-75
2023/03/09 08:27:42;;;;;;;11.88;4.95;;;19.20;83.90;;;;;;4935383;29;20469;-75
2023/03/09 08:30:11;;;;;;;6.78;3.10;;;19.40;84.30;;;;;;4935606;29;20032;-76
2023/03/09 08:32:37;;;;;;;13.73;5.60;;;19.50;83.10;;;;;;4935405;29;20020;-77
2023/03/09 08:35:03;;;;;;;15.10;4.63;;;19.70;83.30;;;;;;4935583;29;20024;-75
2023/03/09 08:37:30;;;;;;;4.95;2.75;;;19.60;81.30;;;;;;4935225;29;20039;-75
2023/03/09 08:39:56;;;;;;;8.23;3.60;;;19.80;82.20;;;;;;4935241;29;20032;-75
2023/03/09 08:42:22;;;;;;;12.52;4.07;;;19.90;82.90;;;;;;4938179;29;20028;-74
2023/03/09 08:44:48;;;;;;;4.97;2.78;;;20.00;83.20;;;;;;4939093;29;20036;-76
2023/03/09 08:47:13;;;;;;;5.78;2.70;;;19.80;81.40;;;;;;4938687;29;20331;-76
2023/03/09 08:49:41;;;;;;;6.20;3.05;;;19.70;81.60;;;;;;4938992;29;20390;-77
2023/03/09 08:52:07;;;;;;;7.97;3.28;;;19.70;80.40;;;;;;4938537;29;20080;-76
2023/03/09 08:54:33;;;;;;;8.85;3.72;;;19.80;80.50;;;;;;4938686;29;20066;-74
2023/03/09 08:57:00;;;;;;;8.32;3.13;;;19.70;81.70;;;;;;4938797;29;20526;-77
2023/03/09 08:59:26;;;;;;;8.05;3.42;;;19.90;81.20;;;;;;4938702;29;20106;-77
2023/03/09 09:01:52;;;;;;;12.13;4.78;;;19.90;81.30;;;;;;4938628;29;20028;-75
2023/03/09 09:04:17;;;;;;;8.60;3.95;;;19.90;81.70;;;;;;4938433;29;20157;-76
2023/03/09 09:06:43;;;;;;;9.00;3.10;;;19.90;84.40;;;;;;4938307;29;20047;-75
2023/03/09 09:09:09;;;;;;;8.85;3.85;;;19.90;82.20;;;;;;4938607;29;20121;-77
2023/03/09 09:11:36;;;;;;;6.90;3.38;;;20.00;81.90;;;;;;4938346;29;20023;-77
2023/03/09 09:14:01;;;;;;;11.57;4.60;;;19.90;83.10;;;;;;4938444;29;20027;-75
2023/03/09 09:16:29;;;;;;;11.82;4.18;;;20.00;80.50;;;;;;4938140;29;20098;-75
2023/03/09 09:18:56;;;;;;;8.27;4.45;;;20.00;81.70;;;;;;4921080;29;20483;-75
2023/03/09 09:21:22;;;;;;;14.85;6.00;;;20.00;82.60;;;;;;4937981;29;20032;-73
2023/03/09 09:23:49;;;;;;;7.82;4.20;;;19.90;82.20;;;;;;4938271;29;20114;-75
2023/03/09 09:26:16;;;;;;;8.93;3.17;;;19.90;81.50;;;;;;4937944;29;20026;-74
2023/03/09 09:28:43;;;;;;;5.60;2.70;;;19.80;83.20;;;;;;4938400;29;20024;-74
2023/03/09 09:31:12;;;;;;;4.50;1.70;;;19.70;81.80;;;;;;4938198;29;20031;-73
2023/03/09 09:33:39;;;;;;;5.88;2.83;;;19.50;80.90;;;;;;4920950;29;20501;-77
2023/03/09 09:36:09;;;;;;;5.72;1.90;;;19.30;80.60;;;;;;4937921;29;20075;-76
2023/03/09 09:38:35;;;;;;;4.75;2.20;;;19.20;81.80;;;;;;4937912;29;20094;-75
2023/03/09 09:41:22;;;;;;;8.77;2.40;;;19.00;81.90;;;;;;4937773;29;20099;-77
2023/03/09 09:43:52;;;;;;;8.88;3.63;;;18.90;81.00;;;;;;4937757;29;20044;-76
2023/03/09 09:46:20;;;;;;;6.50;3.45;;;18.90;81.50;;;;;;4937924;29;20450;-75
2023/03/09 09:48:47;;;;;;;7.72;3.05;;;18.80;82.20;;;;;;4937924;29;20111;-77
2023/03/09 09:51:23;;;;;;;9.98;3.25;;;18.80;82.00;;;;;;4937793;29;20078;-77
2023/03/09 09:54:06;;;;;;;7.70;3.30;;;18.80;83.20;;;;;;4937844;29;20036;-76
2023/03/09 09:56:55;;;;;;;5.55;3.42;;;18.70;83.20;;;;;;4937557;29;20031;-73
2023/03/09 09:59:30;;;;;;;10.73;3.50;;;18.80;82.60;;;;;;4937408;29;20380;-76
2023/03/09 10:02:36;;;;;;;7.60;2.90;;;18.80;86.60;;;;;;4937504;29;20111;-77
2023/03/09 10:05:29;;;;;;;10.95;3.88;;;18.70;84.10;;;;;;4937316;29;20123;-75
2023/03/09 10:07:56;;;;;;;;;;;18.70;83.80;;;;;;4937684;29;20051;-77
2023/03/09 10:10:27;;;;;;;7.55;2.85;;;18.80;84.20;;;;;;4937398;29;19915;-75
2023/03/09 10:12:54;;;;;;;7.65;3.53;;;18.80;84.40;;;;;;4937348;29;20040;-75
2023/03/09 10:15:32;;;;;;;8.68;3.70;;;18.80;83.30;;;;;;4937344;29;20087;-74
2023/03/09 10:18:26;;;;;;;10.80;3.85;;;18.80;84.10;;;;;;4936972;29;20032;-75
2023/03/09 10:20:53;;;;;;;8.88;2.88;;;18.80;84.20;;;;;;4937401;29;20031;-75
2023/03/09 10:23:22;;;;;;;7.10;3.40;;;18.80;87.60;;;;;;4937541;29;20107;-75
2023/03/09 10:25:57;;;;;;;7.55;3.42;;;18.70;83.20;;;;;;4920250;29;20421;-75
2023/03/09 10:28:28;;;;;;;5.53;2.00;;;18.80;83.60;;;;;;4936969;29;20119;-76
2023/03/09 10:31:00;;;;;;;4.10;2.10;;;18.80;84.40;;;;;;4936755;29;20566;-75
2023/03/09 10:34:10;;;;;;;4.13;1.92;;;18.80;83.60;;;;;;4936855;29;20031;-75
2023/03/09 10:36:41;;;;;;;6.55;2.20;;;18.80;84.90;;;;;;4917311;29;20051;-76
2023/03/09 10:39:17;;;;;;;5.60;2.45;;;18.90;84.50;;;;;;4936579;29;20024;-75
2023/03/09 10:41:43;;;;;;;7.28;3.17;;;19.00;84.60;;;;;;4936937;29;20091;-76
2023/03/09 10:44:14;;;;;;;15.57;6.75;;;19.10;84.10;;;;;;4936729;29;20023;-75
2023/03/09 10:47:00;;;;;;;16.35;8.18;;;19.20;85.10;;;;;;4936728;29;20031;-74
2023/03/09 10:49:27;;;;;;;14.93;8.57;;;19.10;85.10;;;;;;4925638;29;20038;-76
2023/03/09 10:52:04;;;;;;;11.63;5.70;;;19.20;84.70;;;;;;4936447;29;20039;-76
2023/03/09 10:54:37;;;;;;;10.05;5.30;;;19.30;84.80;;;;;;4936513;29;20063;-75
2023/03/09 10:57:24;;;;;;;12.77;4.47;;;19.30;83.00;;;;;;4936457;29;20377;-77
2023/03/09 11:00:17;;;;;;;8.75;3.92;;;19.30;82.60;;;;;;4936457;29;20573;-77
2023/03/09 11:02:55;;;;;;;6.05;3.47;;;19.30;82.40;;;;;;4932672;29;20044;-76
2023/03/09 11:05:26;;;;;;;8.23;3.33;;;19.30;82.60;;;;;;4948787;29;20051;-77
2023/03/09 11:08:02;;;;;;;6.75;2.90;;;19.20;84.20;;;;;;4936557;29;20056;-77
2023/03/09 11:10:34;;;;;;;6.90;3.15;;;19.30;82.10;;;;;;4936383;29;20052;-78
2023/03/09 11:13:02;;;;;;;10.82;3.60;;;19.30;82.00;;;;;;4936593;29;20039;-74
2023/03/09 11:15:29;;;;;;;6.75;2.67;;;19.30;81.30;;;;;;4935772;29;20039;-77
2023/03/09 11:17:57;;;;;;;4.65;1.83;;;19.40;81.80;;;;;;4936442;29;20024;-76
2023/03/09 11:20:35;;;;;;;8.52;2.00;;;19.60;81.00;;;;;;4936057;29;20465;-74
2023/03/09 11:23:23;;;;;;;3.35;1.20;;;19.70;81.00;;;;;;4935887;29;20122;-76
2023/03/09 11:26:08;;;;;;;2.97;1.23;;;19.90;79.30;;;;;;4934768;29;20062;-74
2023/03/09 11:28:58;;;;;;;2.97;1.25;;;20.00;79.60;;;;;;4936312;29;20075;-75
2023/03/09 11:31:33;;;;;;;4.00;1.75;;;20.10;79.40;;;;;;4923294;29;20497;-75
2023/03/09 11:33:58;;;;;;;4.20;1.70;;;20.00;81.20;;;;;;4935733;29;20027;-75
2023/03/09 11:36:50;;;;;;;3.80;1.48;;;20.00;78.30;;;;;;4935764;29;20034;-75
2023/03/09 11:39:25;;;;;;;3.40;1.92;;;20.00;78.40;;;;;;4935746;29;20032;-77
2023/03/09 11:41:54;;;;;;;4.38;2.05;;;20.00;77.70;;;;;;4918963;29;20059;-74
2023/03/09 11:44:22;;;;;;;10.98;2.42;;;20.00;77.80;;;;;;4935611;29;20370;-76
2023/03/09 11:46:53;;;;;;;5.53;2.20;;;20.00;77.20;;;;;;4935693;29;20115;-73
2023/03/09 11:49:25;;;;;;;2.53;1.30;;;20.00;77.40;;;;;;4936021;29;20439;-76
2023/03/09 11:51:52;;;;;;;3.03;1.50;;;20.00;78.40;;;;;;4935761;29;20130;-76
2023/03/09 11:54:41;;;;;;;4.13;1.20;;;20.10;77.10;;;;;;4935719;29;20028;-74
2023/03/09 11:57:12;;;;;;;2.92;1.65;;;20.20;77.90;;;;;;4935584;29;20076;-77
2023/03/09 11:59:46;;;;;;;3.78;1.40;;;20.30;77.10;;;;;;4935795;29;20525;-77
2023/03/09 12:02:28;;;;;;;2.83;1.52;;;20.40;76.60;;;;;;4935787;29;20046;-75
2023/03/09 12:04:55;;;;;;;1.98;1.20;;;20.50;77.30;;;;;;4935313;29;20039;-77
2023/03/09 12:07:26;;;;;;;6.68;1.65;;;20.60;78.00;;;;;;4935269;29;20091;-76
2023/03/09 12:10:07;;;;;;;6.10;2.08;;;20.70;77.60;;;;;;4935606;29;20497;-77
2023/03/09 12:12:44;;;;;;;5.03;1.52;;;20.80;77.30;;;;;;4935527;29;20032;-77
2023/03/09 12:15:16;;;;;;;3.60;1.42;;;20.80;78.50;;;;;;4907509;29;20684;-76
2023/03/09 12:18:04;;;;;;;2.83;1.70;;;21.00;76.90;;;;;;4939334;29;20031;-76
2023/03/09 12:20:38;;;;;;;1.58;0.90;;;21.20;76.70;;;;;;4940031;29;20067;-76
2023/03/09 12:23:24;;;;;;;2.15;1.00;;;21.10;75.40;;;;;;4939334;29;20386;-75
2023/03/09 12:25:57;;;;;;;4.18;1.10;;;20.90;76.50;;;;;;4938954;29;20497;-76
2023/03/09 12:28:23;;;;;;;1.60;1.10;;;20.70;76.40;;;;;;4939442;29;20505;-76
2023/03/09 12:30:55;;;;;;;4.95;2.10;;;20.50;76.70;;;;;;4939336;29;20039;-76
2023/03/09 12:33:42;;;;;;;2.10;1.25;;;20.40;78.00;;;;;;4939104;29;20032;-76
2023/03/09 12:36:29;;;;;;;5.00;2.17;;;20.20;79.00;;;;;;4939152;29;20024;-75
2023/03/09 12:39:23;;;;;;;4.13;2.05;;;19.80;82.20;;;;;;4938931;29;20481;-74
2023/03/09 12:42:07;;;;;;;2.45;1.60;;;19.50;84.50;;;;;;4939167;29;20115;-76
2023/03/09 12:44:44;;;;;;;5.25;2.58;;;19.30;85.10;;;;;;4928259;29;20039;-76
2023/03/09 12:47:32;;;;;;;3.85;2.00;;;19.20;84.40;;;;;;4938991;29;20123;-76
2023/03/09 12:49:58;;;;;;;5.05;2.17;;;19.10;86.30;;;;;;4938941;29;20032;-76
2023/03/09 12:52:31;;;;;;;5.28;3.08;;;18.90;85.10;;;;;;4938803;29;20066;-75
2023/03/09 12:55:16;;;;;;;9.30;3.63;;;18.80;86.60;;;;;;4938588;29;20047;-75